sensor_id;sensor_type;location;lat;lon;timestamp;P1;durP1;ratioP1;P2;durP2;ratioP2
52102;SDS011;38101;53.126;6.878;2023-09-08T00:01:37;9.23;;;8.32;;
52102;SDS011;38101;53.126;6.878;2023-09-08T00:04:03;11.98;;;8.98;;
52102;SDS011;38101;53.126;6.878;2023-09-08T00:06:29;10.57;;;8.35;;
52102;SDS011;38101;53.126;6.878;2023-09-08T00:08:55;9.63;;;8.23;;
52102;SDS011;38101;53.126;6.878;2023-09-08T00:11:20;13.25;;;8.88;;
52102;SDS011;38101;53.126;6.878;2023-09-08T00:13:46;9.25;;;8.13;;
52102;SDS011;38101;53.126;6.878;2023-09-08T00:16:12;9.32;;;8.35;;
52102;SDS011;38101;53.126;6.878;2023-09-08T00:18:37;9.93;;;8.68;;
52102;SDS011;38101;53.126;6.878;2023-09-08T00:21:03;10.43;;;9.32;;
52102;SDS011;38101;53.126;6.878;2023-09-08T00:23:29;9.52;;;8.43;;
52102;SDS011;38101;53.126;6.878;2023-09-08T00:25:54;9.90;;;8.38;;
52102;SDS011;38101;53.126;6.878;2023-09-08T00:28:20;10.02;;;8.85;;
52102;SDS011;38101;53.126;6.878;2023-09-08T00:30:45;9.52;;;8.45;;
52102;SDS011;38101;53.126;6.878;2023-09-08T00:33:11;11.25;;;9.18;;
52102;SDS011;38101;53.126;6.878;2023-09-08T00:35:39;9.80;;;8.63;;
52102;SDS011;38101;53.126;6.878;2023-09-08T00:38:08;10.23;;;8.52;;
52102;SDS011;38101;53.126;6.878;2023-09-08T00:40:34;11.82;;;8.40;;
52102;SDS011;38101;53.126;6.878;2023-09-08T00:43:00;10.60;;;8.68;;
52102;SDS011;38101;53.126;6.878;2023-09-08T00:45:26;10.70;;;8.35;;
52102;SDS011;38101;53.126;6.878;2023-09-08T00:47:54;11.18;;;8.88;;
52102;SDS011;38101;53.126;6.878;2023-09-08T00:50:20;13.00;;;9.45;;
52102;SDS011;38101;53.126;6.878;2023-09-08T00:52:46;10.25;;;9.07;;
52102;SDS011;38101;53.126;6.878;2023-09-08T00:55:12;10.40;;;9.40;;
52102;SDS011;38101;53.126;6.878;2023-09-08T00:57:38;9.82;;;8.38;;
52102;SDS011;38101;53.126;6.878;2023-09-08T01:00:04;10.38;;;8.95;;
52102;SDS011;38101;53.126;6.878;2023-09-08T01:02:31;10.25;;;8.60;;
52102;SDS011;38101;53.126;6.878;2023-09-08T01:04:57;10.18;;;8.35;;
52102;SDS011;38101;53.126;6.878;2023-09-08T01:07:24;9.57;;;8.65;;
52102;SDS011;38101;53.126;6.878;2023-09-08T01:09:53;10.88;;;9.13;;
52102;SDS011;38101;53.126;6.878;2023-09-08T01:12:19;13.27;;;8.68;;
52102;SDS011;38101;53.126;6.878;2023-09-08T01:14:44;9.05;;;8.15;;
52102;SDS011;38101;53.126;6.878;2023-09-08T01:17:10;8.63;;;7.72;;
52102;SDS011;38101;53.126;6.878;2023-09-08T01:19:37;10.65;;;8.38;;
52102;SDS011;38101;53.126;6.878;2023-09-08T01:27:35;10.40;;;8.23;;
52102;SDS011;38101;53.126;6.878;2023-09-08T01:30:02;8.88;;;7.97;;
52102;SDS011;38101;53.126;6.878;2023-09-08T01:32:30;11.70;;;8.73;;
52102;SDS011;38101;53.126;6.878;2023-09-08T01:34:57;10.38;;;9.05;;
52102;SDS011;38101;53.126;6.878;2023-09-08T01:37:24;14.35;;;8.05;;
52102;SDS011;38101;53.126;6.878;2023-09-08T01:39:50;9.75;;;7.90;;
52102;SDS011;38101;53.126;6.878;2023-09-08T01:42:15;8.68;;;7.78;;
52102;SDS011;38101;53.126;6.878;2023-09-08T01:44:41;9.45;;;8.40;;
52102;SDS011;38101;53.126;6.878;2023-09-08T01:47:07;9.80;;;8.80;;
52102;SDS011;38101;53.126;6.878;2023-09-08T01:49:32;13.32;;;9.10;;
52102;SDS011;38101;53.126;6.878;2023-09-08T01:51:58;10.20;;;8.95;;
52102;SDS011;38101;53.126;6.878;2023-09-08T01:54:24;10.75;;;9.10;;
52102;SDS011;38101;53.126;6.878;2023-09-08T01:56:49;10.50;;;8.50;;
52102;SDS011;38101;53.126;6.878;2023-09-08T01:59:16;11.63;;;8.68;;
52102;SDS011;38101;53.126;6.878;2023-09-08T02:01:42;12.43;;;9.35;;
52102;SDS011;38101;53.126;6.878;2023-09-08T02:04:07;10.68;;;9.27;;
52102;SDS011;38101;53.126;6.878;2023-09-08T02:06:33;11.07;;;8.85;;
52102;SDS011;38101;53.126;6.878;2023-09-08T02:08:59;11.32;;;9.60;;
52102;SDS011;38101;53.126;6.878;2023-09-08T02:11:25;10.13;;;8.80;;
52102;SDS011;38101;53.126;6.878;2023-09-08T02:13:51;13.10;;;8.98;;
52102;SDS011;38101;53.126;6.878;2023-09-08T02:16:17;10.55;;;9.05;;
52102;SDS011;38101;53.126;6.878;2023-09-08T02:18:43;17.70;;;10.27;;
52102;SDS011;38101;53.126;6.878;2023-09-08T02:21:09;12.07;;;9.88;;
52102;SDS011;38101;53.126;6.878;2023-09-08T02:23:36;11.13;;;9.65;;
52102;SDS011;38101;53.126;6.878;2023-09-08T02:26:02;10.82;;;9.07;;
52102;SDS011;38101;53.126;6.878;2023-09-08T02:28:27;11.88;;;9.88;;
52102;SDS011;38101;53.126;6.878;2023-09-08T02:30:53;10.60;;;9.50;;
52102;SDS011;38101;53.126;6.878;2023-09-08T02:33:19;9.90;;;8.82;;
52102;SDS011;38101;53.126;6.878;2023-09-08T02:35:45;10.55;;;9.43;;
52102;SDS011;38101;53.126;6.878;2023-09-08T02:38:11;11.98;;;9.65;;
52102;SDS011;38101;53.126;6.878;2023-09-08T02:40:36;11.27;;;9.70;;
52102;SDS011;38101;53.126;6.878;2023-09-08T02:43:02;10.60;;;9.50;;
52102;SDS011;38101;53.126;6.878;2023-09-08T02:45:29;11.88;;;9.35;;
52102;SDS011;38101;53.126;6.878;2023-09-08T02:47:55;10.40;;;9.30;;
52102;SDS011;38101;53.126;6.878;2023-09-08T02:50:21;10.80;;;9.68;;
52102;SDS011;38101;53.126;6.878;2023-09-08T02:52:47;11.20;;;9.93;;
52102;SDS011;38101;53.126;6.878;2023-09-08T02:55:12;11.68;;;9.70;;
52102;SDS011;38101;53.126;6.878;2023-09-08T02:57:39;17.80;;;10.00;;
52102;SDS011;38101;53.126;6.878;2023-09-08T03:00:05;10.40;;;9.30;;
52102;SDS011;38101;53.126;6.878;2023-09-08T03:02:32;11.45;;;10.05;;
52102;SDS011;38101;53.126;6.878;2023-09-08T03:04:58;12.27;;;9.70;;
52102;SDS011;38101;53.126;6.878;2023-09-08T03:07:25;12.30;;;10.30;;
52102;SDS011;38101;53.126;6.878;2023-09-08T03:09:51;11.23;;;9.57;;
52102;SDS011;38101;53.126;6.878;2023-09-08T03:12:17;12.15;;;9.65;;
52102;SDS011;38101;53.126;6.878;2023-09-08T03:14:42;11.07;;;9.43;;
52102;SDS011;38101;53.126;6.878;2023-09-08T03:17:08;12.50;;;9.55;;
52102;SDS011;38101;53.126;6.878;2023-09-08T03:19:34;11.88;;;9.82;;
52102;SDS011;38101;53.126;6.878;2023-09-08T03:22:00;12.25;;;10.55;;
52102;SDS011;38101;53.126;6.878;2023-09-08T03:24:25;13.30;;;10.45;;
52102;SDS011;38101;53.126;6.878;2023-09-08T03:26:51;11.23;;;9.85;;
52102;SDS011;38101;53.126;6.878;2023-09-08T03:29:17;11.43;;;10.23;;
52102;SDS011;38101;53.126;6.878;2023-09-08T03:31:42;10.95;;;9.77;;
52102;SDS011;38101;53.126;6.878;2023-09-08T03:34:08;10.95;;;9.70;;
52102;SDS011;38101;53.126;6.878;2023-09-08T03:36:34;12.98;;;10.13;;
52102;SDS011;38101;53.126;6.878;2023-09-08T03:39:03;12.80;;;9.88;;
52102;SDS011;38101;53.126;6.878;2023-09-08T03:41:28;11.05;;;9.70;;
52102;SDS011;38101;53.126;6.878;2023-09-08T03:43:54;13.23;;;10.77;;
52102;SDS011;38101;53.126;6.878;2023-09-08T03:46:20;11.55;;;9.88;;
52102;SDS011;38101;53.126;6.878;2023-09-08T03:48:46;11.70;;;10.10;;
52102;SDS011;38101;53.126;6.878;2023-09-08T03:51:11;13.50;;;10.30;;
52102;SDS011;38101;53.126;6.878;2023-09-08T03:53:37;11.27;;;10.07;;
52102;SDS011;38101;53.126;6.878;2023-09-08T03:56:03;12.60;;;11.10;;
52102;SDS011;38101;53.126;6.878;2023-09-08T03:58:28;13.05;;;10.13;;
52102;SDS011;38101;53.126;6.878;2023-09-08T04:00:54;16.73;;;11.07;;
52102;SDS011;38101;53.126;6.878;2023-09-08T04:03:20;17.27;;;11.10;;
52102;SDS011;38101;53.126;6.878;2023-09-08T04:05:45;16.30;;;12.20;;
52102;SDS011;38101;53.126;6.878;2023-09-08T04:08:11;16.75;;;11.00;;
52102;SDS011;38101;53.126;6.878;2023-09-08T04:10:37;17.60;;;11.45;;
52102;SDS011;38101;53.126;6.878;2023-09-08T04:13:02;19.90;;;12.90;;
52102;SDS011;38101;53.126;6.878;2023-09-08T04:15:29;19.55;;;12.13;;
52102;SDS011;38101;53.126;6.878;2023-09-08T04:17:54;17.42;;;12.30;;
52102;SDS011;38101;53.126;6.878;2023-09-08T04:20:22;15.18;;;10.98;;
52102;SDS011;38101;53.126;6.878;2023-09-08T04:22:48;13.73;;;10.93;;
52102;SDS011;38101;53.126;6.878;2023-09-08T04:25:13;15.35;;;11.45;;
52102;SDS011;38101;53.126;6.878;2023-09-08T04:27:39;14.80;;;10.82;;
52102;SDS011;38101;53.126;6.878;2023-09-08T04:30:05;14.32;;;12.00;;
52102;SDS011;38101;53.126;6.878;2023-09-08T04:32:32;14.10;;;11.15;;
52102;SDS011;38101;53.126;6.878;2023-09-08T04:34:58;13.10;;;10.35;;
52102;SDS011;38101;53.126;6.878;2023-09-08T04:37:23;14.32;;;10.63;;
52102;SDS011;38101;53.126;6.878;2023-09-08T04:39:49;12.27;;;10.52;;
52102;SDS011;38101;53.126;6.878;2023-09-08T04:42:15;13.60;;;10.55;;
52102;SDS011;38101;53.126;6.878;2023-09-08T04:44:40;11.48;;;10.27;;
52102;SDS011;38101;53.126;6.878;2023-09-08T04:47:06;12.13;;;10.52;;
52102;SDS011;38101;53.126;6.878;2023-09-08T04:49:32;13.30;;;10.48;;
52102;SDS011;38101;53.126;6.878;2023-09-08T04:51:57;12.70;;;10.73;;
52102;SDS011;38101;53.126;6.878;2023-09-08T04:54:23;13.25;;;10.00;;
52102;SDS011;38101;53.126;6.878;2023-09-08T04:56:52;14.32;;;10.65;;
52102;SDS011;38101;53.126;6.878;2023-09-08T04:59:19;14.85;;;11.30;;
52102;SDS011;38101;53.126;6.878;2023-09-08T05:01:45;11.88;;;10.68;;
52102;SDS011;38101;53.126;6.878;2023-09-08T05:04:10;16.58;;;10.93;;
52102;SDS011;38101;53.126;6.878;2023-09-08T05:06:36;13.43;;;10.73;;
52102;SDS011;38101;53.126;6.878;2023-09-08T05:09:02;12.80;;;11.10;;
52102;SDS011;38101;53.126;6.878;2023-09-08T05:11:28;13.15;;;10.95;;
52102;SDS011;38101;53.126;6.878;2023-09-08T05:13:54;13.18;;;11.30;;
52102;SDS011;38101;53.126;6.878;2023-09-08T05:16:19;13.57;;;11.27;;
52102;SDS011;38101;53.126;6.878;2023-09-08T05:19:01;13.50;;;11.02;;
52102;SDS011;38101;53.126;6.878;2023-09-08T05:21:26;12.43;;;11.13;;
52102;SDS011;38101;53.126;6.878;2023-09-08T05:23:52;13.55;;;11.60;;
52102;SDS011;38101;53.126;6.878;2023-09-08T05:26:18;15.43;;;10.52;;
52102;SDS011;38101;53.126;6.878;2023-09-08T05:28:43;14.05;;;11.48;;
52102;SDS011;38101;53.126;6.878;2023-09-08T05:31:09;15.00;;;11.15;;
52102;SDS011;38101;53.126;6.878;2023-09-08T05:33:35;15.88;;;11.70;;
52102;SDS011;38101;53.126;6.878;2023-09-08T05:36:00;14.60;;;11.43;;
52102;SDS011;38101;53.126;6.878;2023-09-08T05:38:26;15.90;;;12.38;;
52102;SDS011;38101;53.126;6.878;2023-09-08T05:40:53;15.02;;;11.85;;
52102;SDS011;38101;53.126;6.878;2023-09-08T05:43:18;15.15;;;11.63;;
52102;SDS011;38101;53.126;6.878;2023-09-08T05:45:44;16.02;;;12.05;;
52102;SDS011;38101;53.126;6.878;2023-09-08T05:48:10;14.50;;;11.32;;
52102;SDS011;38101;53.126;6.878;2023-09-08T05:50:36;13.98;;;11.73;;
52102;SDS011;38101;53.126;6.878;2023-09-08T05:53:02;12.95;;;11.55;;
52102;SDS011;38101;53.126;6.878;2023-09-08T05:55:27;13.05;;;11.57;;
52102;SDS011;38101;53.126;6.878;2023-09-08T05:57:53;19.50;;;13.07;;
52102;SDS011;38101;53.126;6.878;2023-09-08T06:00:19;14.80;;;11.38;;
52102;SDS011;38101;53.126;6.878;2023-09-08T06:02:45;13.10;;;11.57;;
52102;SDS011;38101;53.126;6.878;2023-09-08T06:05:10;14.27;;;11.90;;
52102;SDS011;38101;53.126;6.878;2023-09-08T06:07:36;16.52;;;11.95;;
52102;SDS011;38101;53.126;6.878;2023-09-08T06:10:02;15.20;;;11.95;;
52102;SDS011;38101;53.126;6.878;2023-09-08T06:12:28;15.27;;;12.00;;
52102;SDS011;38101;53.126;6.878;2023-09-08T06:14:54;15.23;;;12.40;;
52102;SDS011;38101;53.126;6.878;2023-09-08T06:17:19;13.90;;;11.25;;
52102;SDS011;38101;53.126;6.878;2023-09-08T06:19:45;13.57;;;12.18;;
52102;SDS011;38101;53.126;6.878;2023-09-08T06:22:11;13.75;;;11.73;;
52102;SDS011;38101;53.126;6.878;2023-09-08T06:24:36;14.80;;;11.77;;
52102;SDS011;38101;53.126;6.878;2023-09-08T06:27:02;15.38;;;11.98;;
52102;SDS011;38101;53.126;6.878;2023-09-08T06:29:28;14.77;;;12.82;;
52102;SDS011;38101;53.126;6.878;2023-09-08T06:31:53;16.83;;;12.68;;
52102;SDS011;38101;53.126;6.878;2023-09-08T06:34:19;17.05;;;12.38;;
52102;SDS011;38101;53.126;6.878;2023-09-08T06:36:47;45.95;;;16.77;;
52102;SDS011;38101;53.126;6.878;2023-09-08T06:39:13;34.65;;;15.18;;
52102;SDS011;38101;53.126;6.878;2023-09-08T06:41:39;33.33;;;14.82;;
52102;SDS011;38101;53.126;6.878;2023-09-08T06:44:04;18.75;;;14.20;;
52102;SDS011;38101;53.126;6.878;2023-09-08T06:46:30;18.65;;;14.10;;
52102;SDS011;38101;53.126;6.878;2023-09-08T06:48:56;17.52;;;13.50;;
52102;SDS011;38101;53.126;6.878;2023-09-08T06:51:22;18.38;;;13.13;;
52102;SDS011;38101;53.126;6.878;2023-09-08T06:53:53;15.40;;;12.88;;
52102;SDS011;38101;53.126;6.878;2023-09-08T06:56:23;13.93;;;11.85;;
52102;SDS011;38101;53.126;6.878;2023-09-08T06:58:48;14.10;;;11.75;;
52102;SDS011;38101;53.126;6.878;2023-09-08T07:01:14;14.77;;;11.75;;
52102;SDS011;38101;53.126;6.878;2023-09-08T07:03:40;15.38;;;12.85;;
52102;SDS011;38101;53.126;6.878;2023-09-08T07:06:06;12.90;;;11.68;;
52102;SDS011;38101;53.126;6.878;2023-09-08T07:08:32;12.38;;;11.07;;
52102;SDS011;38101;53.126;6.878;2023-09-08T07:10:57;11.55;;;10.35;;
52102;SDS011;38101;53.126;6.878;2023-09-08T07:13:23;11.85;;;9.88;;
52102;SDS011;38101;53.126;6.878;2023-09-08T07:15:49;12.95;;;10.23;;
52102;SDS011;38101;53.126;6.878;2023-09-08T07:18:14;10.48;;;9.30;;
52102;SDS011;38101;53.126;6.878;2023-09-08T07:20:40;12.43;;;9.15;;
52102;SDS011;38101;53.126;6.878;2023-09-08T07:23:06;12.55;;;8.98;;
52102;SDS011;38101;53.126;6.878;2023-09-08T07:25:32;11.88;;;9.77;;
52102;SDS011;38101;53.126;6.878;2023-09-08T07:27:57;10.43;;;9.32;;
52102;SDS011;38101;53.126;6.878;2023-09-08T07:30:23;11.10;;;9.32;;
52102;SDS011;38101;53.126;6.878;2023-09-08T07:32:48;9.95;;;8.88;;
52102;SDS011;38101;53.126;6.878;2023-09-08T07:35:14;11.52;;;8.98;;
52102;SDS011;38101;53.126;6.878;2023-09-08T07:37:42;11.18;;;9.23;;
52102;SDS011;38101;53.126;6.878;2023-09-08T07:40:11;11.15;;;9.23;;
52102;SDS011;38101;53.126;6.878;2023-09-08T07:42:37;10.32;;;9.20;;
52102;SDS011;38101;53.126;6.878;2023-09-08T07:45:02;10.50;;;9.18;;
52102;SDS011;38101;53.126;6.878;2023-09-08T07:47:28;12.18;;;8.30;;
52102;SDS011;38101;53.126;6.878;2023-09-08T07:50:15;11.50;;;9.32;;
52102;SDS011;38101;53.126;6.878;2023-09-08T07:52:43;11.60;;;8.48;;
52102;SDS011;38101;53.126;6.878;2023-09-08T07:55:09;10.32;;;9.02;;
52102;SDS011;38101;53.126;6.878;2023-09-08T07:57:34;11.75;;;8.35;;
52102;SDS011;38101;53.126;6.878;2023-09-08T08:00:00;11.63;;;8.32;;
52102;SDS011;38101;53.126;6.878;2023-09-08T08:02:26;10.05;;;9.05;;
52102;SDS011;38101;53.126;6.878;2023-09-08T08:04:52;17.48;;;9.45;;
52102;SDS011;38101;53.126;6.878;2023-09-08T08:07:17;10.65;;;9.38;;
52102;SDS011;38101;53.126;6.878;2023-09-08T08:09:43;12.93;;;9.52;;
52102;SDS011;38101;53.126;6.878;2023-09-08T08:12:09;11.10;;;8.80;;
52102;SDS011;38101;53.126;6.878;2023-09-08T08:14:34;11.27;;;9.07;;
52102;SDS011;38101;53.126;6.878;2023-09-08T08:17:00;19.90;;;10.05;;
52102;SDS011;38101;53.126;6.878;2023-09-08T08:19:26;10.75;;;8.57;;
52102;SDS011;38101;53.126;6.878;2023-09-08T08:21:52;9.90;;;8.50;;
52102;SDS011;38101;53.126;6.878;2023-09-08T08:24:18;9.85;;;8.85;;
52102;SDS011;38101;53.126;6.878;2023-09-08T08:26:44;9.63;;;8.48;;
52102;SDS011;38101;53.126;6.878;2023-09-08T08:29:10;9.30;;;8.40;;
52102;SDS011;38101;53.126;6.878;2023-09-08T08:31:35;10.27;;;8.57;;
52102;SDS011;38101;53.126;6.878;2023-09-08T08:34:01;9.50;;;8.18;;
52102;SDS011;38101;53.126;6.878;2023-09-08T08:36:27;10.52;;;7.93;;
52102;SDS011;38101;53.126;6.878;2023-09-08T08:38:53;8.82;;;7.72;;
52102;SDS011;38101;53.126;6.878;2023-09-08T08:41:19;8.15;;;7.10;;
52102;SDS011;38101;53.126;6.878;2023-09-08T08:43:45;8.45;;;6.93;;
52102;SDS011;38101;53.126;6.878;2023-09-08T08:46:12;7.78;;;6.85;;
52102;SDS011;38101;53.126;6.878;2023-09-08T08:48:38;7.63;;;6.85;;
52102;SDS011;38101;53.126;6.878;2023-09-08T08:51:05;8.25;;;6.45;;
52102;SDS011;38101;53.126;6.878;2023-09-08T08:53:33;8.40;;;6.68;;
52102;SDS011;38101;53.126;6.878;2023-09-08T08:56:01;7.10;;;6.40;;
52102;SDS011;38101;53.126;6.878;2023-09-08T08:58:28;8.52;;;6.25;;
52102;SDS011;38101;53.126;6.878;2023-09-08T09:00:54;7.60;;;6.55;;
52102;SDS011;38101;53.126;6.878;2023-09-08T09:03:22;8.00;;;6.72;;
52102;SDS011;38101;53.126;6.878;2023-09-08T09:05:51;7.75;;;6.25;;
52102;SDS011;38101;53.126;6.878;2023-09-08T09:08:17;7.32;;;6.45;;
52102;SDS011;38101;53.126;6.878;2023-09-08T09:10:44;8.32;;;6.63;;
52102;SDS011;38101;53.126;6.878;2023-09-08T09:13:10;8.05;;;6.72;;
52102;SDS011;38101;53.126;6.878;2023-09-08T09:15:35;8.00;;;6.43;;
52102;SDS011;38101;53.126;6.878;2023-09-08T09:18:02;8.25;;;6.07;;
52102;SDS011;38101;53.126;6.878;2023-09-08T09:20:31;8.25;;;6.35;;
52102;SDS011;38101;53.126;6.878;2023-09-08T09:22:57;7.05;;;5.90;;
52102;SDS011;38101;53.126;6.878;2023-09-08T09:25:23;8.15;;;6.13;;
52102;SDS011;38101;53.126;6.878;2023-09-08T09:27:58;6.70;;;6.00;;
52102;SDS011;38101;53.126;6.878;2023-09-08T09:33:00;7.43;;;6.28;;
52102;SDS011;38101;53.126;6.878;2023-09-08T09:35:46;7.60;;;6.18;;
52102;SDS011;38101;53.126;6.878;2023-09-08T09:38:12;9.00;;;6.70;;
52102;SDS011;38101;53.126;6.878;2023-09-08T09:40:39;8.77;;;6.82;;
52102;SDS011;38101;53.126;6.878;2023-09-08T09:43:05;7.35;;;6.07;;
52102;SDS011;38101;53.126;6.878;2023-09-08T09:45:33;7.63;;;6.13;;
52102;SDS011;38101;53.126;6.878;2023-09-08T09:47:59;8.43;;;6.15;;
52102;SDS011;38101;53.126;6.878;2023-09-08T09:50:37;7.28;;;6.28;;
52102;SDS011;38101;53.126;6.878;2023-09-08T09:53:08;7.60;;;5.30;;
52102;SDS011;38101;53.126;6.878;2023-09-08T09:55:36;7.70;;;5.63;;
52102;SDS011;38101;53.126;6.878;2023-09-08T09:58:06;6.68;;;5.65;;
52102;SDS011;38101;53.126;6.878;2023-09-08T10:00:33;7.05;;;5.88;;
52102;SDS011;38101;53.126;6.878;2023-09-08T10:03:00;7.03;;;5.55;;
52102;SDS011;38101;53.126;6.878;2023-09-08T10:05:27;7.70;;;5.78;;
52102;SDS011;38101;53.126;6.878;2023-09-08T10:07:53;6.28;;;5.45;;
52102;SDS011;38101;53.126;6.878;2023-09-08T10:10:19;8.38;;;5.95;;
52102;SDS011;38101;53.126;6.878;2023-09-08T10:12:49;7.47;;;5.60;;
52102;SDS011;38101;53.126;6.878;2023-09-08T10:15:21;6.03;;;5.43;;
52102;SDS011;38101;53.126;6.878;2023-09-08T10:17:52;7.97;;;5.32;;
52102;SDS011;38101;53.126;6.878;2023-09-08T10:20:21;6.88;;;5.72;;
52102;SDS011;38101;53.126;6.878;2023-09-08T10:22:49;8.70;;;5.47;;
52102;SDS011;38101;53.126;6.878;2023-09-08T10:25:26;6.03;;;5.38;;
52102;SDS011;38101;53.126;6.878;2023-09-08T10:27:55;6.60;;;5.50;;
52102;SDS011;38101;53.126;6.878;2023-09-08T10:30:21;6.40;;;5.75;;
52102;SDS011;38101;53.126;6.878;2023-09-08T10:32:47;6.40;;;5.68;;
52102;SDS011;38101;53.126;6.878;2023-09-08T10:35:15;6.50;;;5.53;;
52102;SDS011;38101;53.126;6.878;2023-09-08T10:37:44;8.15;;;5.60;;
52102;SDS011;38101;53.126;6.878;2023-09-08T10:40:22;8.20;;;5.70;;
52102;SDS011;38101;53.126;6.878;2023-09-08T10:42:53;9.27;;;5.60;;
52102;SDS011;38101;53.126;6.878;2023-09-08T10:45:31;7.03;;;5.90;;
52102;SDS011;38101;53.126;6.878;2023-09-08T10:47:57;7.63;;;5.57;;
52102;SDS011;38101;53.126;6.878;2023-09-08T10:50:28;6.57;;;5.03;;
52102;SDS011;38101;53.126;6.878;2023-09-08T10:58:16;6.38;;;5.05;;
52102;SDS011;38101;53.126;6.878;2023-09-08T11:00:45;8.00;;;5.38;;
52102;SDS011;38101;53.126;6.878;2023-09-08T11:03:12;8.52;;;5.32;;
52102;SDS011;38101;53.126;6.878;2023-09-08T11:05:39;5.70;;;5.00;;
52102;SDS011;38101;53.126;6.878;2023-09-08T11:08:04;7.22;;;5.00;;
52102;SDS011;38101;53.126;6.878;2023-09-08T11:10:30;6.78;;;5.10;;
52102;SDS011;38101;53.126;6.878;2023-09-08T11:12:58;7.75;;;4.68;;
52102;SDS011;38101;53.126;6.878;2023-09-08T11:15:25;9.07;;;5.10;;
52102;SDS011;38101;53.126;6.878;2023-09-08T11:17:51;5.93;;;4.70;;
52102;SDS011;38101;53.126;6.878;2023-09-08T11:20:25;7.10;;;4.70;;
52102;SDS011;38101;53.126;6.878;2023-09-08T11:22:52;7.00;;;5.10;;
52102;SDS011;38101;53.126;6.878;2023-09-08T11:25:18;6.00;;;4.95;;
52102;SDS011;38101;53.126;6.878;2023-09-08T11:27:45;5.45;;;4.80;;
52102;SDS011;38101;53.126;6.878;2023-09-08T11:30:15;8.40;;;5.05;;
52102;SDS011;38101;53.126;6.878;2023-09-08T11:32:41;5.90;;;5.10;;
52102;SDS011;38101;53.126;6.878;2023-09-08T11:35:08;6.72;;;4.97;;
52102;SDS011;38101;53.126;6.878;2023-09-08T11:37:38;6.13;;;5.13;;
52102;SDS011;38101;53.126;6.878;2023-09-08T11:40:06;6.60;;;4.85;;
52102;SDS011;38101;53.126;6.878;2023-09-08T11:42:40;5.80;;;4.97;;
52102;SDS011;38101;53.126;6.878;2023-09-08T11:45:13;5.63;;;5.03;;
52102;SDS011;38101;53.126;6.878;2023-09-08T11:47:42;6.68;;;4.82;;
52102;SDS011;38101;53.126;6.878;2023-09-08T11:50:09;6.90;;;5.25;;
52102;SDS011;38101;53.126;6.878;2023-09-08T11:52:37;6.57;;;4.72;;
52102;SDS011;38101;53.126;6.878;2023-09-08T11:55:04;7.90;;;4.72;;
52102;SDS011;38101;53.126;6.878;2023-09-08T11:57:30;7.00;;;4.55;;
52102;SDS011;38101;53.126;6.878;2023-09-08T11:59:57;6.20;;;4.53;;
52102;SDS011;38101;53.126;6.878;2023-09-08T12:02:23;5.45;;;4.32;;
52102;SDS011;38101;53.126;6.878;2023-09-08T12:04:52;5.45;;;4.70;;
52102;SDS011;38101;53.126;6.878;2023-09-08T12:07:19;7.03;;;4.80;;
52102;SDS011;38101;53.126;6.878;2023-09-08T12:09:45;5.40;;;4.70;;
52102;SDS011;38101;53.126;6.878;2023-09-08T12:12:11;6.13;;;5.15;;
52102;SDS011;38101;53.126;6.878;2023-09-08T12:14:43;5.47;;;4.65;;
52102;SDS011;38101;53.126;6.878;2023-09-08T12:17:09;7.20;;;4.95;;
52102;SDS011;38101;53.126;6.878;2023-09-08T12:19:35;6.28;;;5.15;;
52102;SDS011;38101;53.126;6.878;2023-09-08T12:22:02;5.70;;;5.10;;
52102;SDS011;38101;53.126;6.878;2023-09-08T12:27:15;7.13;;;4.40;;
52102;SDS011;38101;53.126;6.878;2023-09-08T12:32:45;8.63;;;4.88;;
52102;SDS011;38101;53.126;6.878;2023-09-08T12:35:18;6.82;;;4.63;;
52102;SDS011;38101;53.126;6.878;2023-09-08T12:37:54;5.72;;;4.30;;
52102;SDS011;38101;53.126;6.878;2023-09-08T12:40:24;5.80;;;4.43;;
52102;SDS011;38101;53.126;6.878;2023-09-08T12:42:51;7.68;;;4.63;;
52102;SDS011;38101;53.126;6.878;2023-09-08T12:45:17;6.75;;;4.70;;
52102;SDS011;38101;53.126;6.878;2023-09-08T12:47:43;7.68;;;5.20;;
52102;SDS011;38101;53.126;6.878;2023-09-08T12:50:09;7.40;;;4.85;;
52102;SDS011;38101;53.126;6.878;2023-09-08T12:52:35;7.32;;;4.75;;
52102;SDS011;38101;53.126;6.878;2023-09-08T12:55:01;6.18;;;4.10;;
52102;SDS011;38101;53.126;6.878;2023-09-08T12:57:27;5.88;;;4.90;;
52102;SDS011;38101;53.126;6.878;2023-09-08T12:59:53;8.23;;;4.93;;
52102;SDS011;38101;53.126;6.878;2023-09-08T13:02:19;6.38;;;5.07;;
52102;SDS011;38101;53.126;6.878;2023-09-08T13:04:45;6.70;;;4.90;;
52102;SDS011;38101;53.126;6.878;2023-09-08T13:07:17;6.53;;;4.70;;
52102;SDS011;38101;53.126;6.878;2023-09-08T13:09:43;5.05;;;4.43;;
52102;SDS011;38101;53.126;6.878;2023-09-08T13:12:09;8.18;;;5.18;;
52102;SDS011;38101;53.126;6.878;2023-09-08T13:14:36;6.53;;;4.63;;
52102;SDS011;38101;53.126;6.878;2023-09-08T13:17:02;6.93;;;4.85;;
52102;SDS011;38101;53.126;6.878;2023-09-08T13:19:28;7.43;;;5.07;;
52102;SDS011;38101;53.126;6.878;2023-09-08T13:21:54;6.32;;;4.35;;
52102;SDS011;38101;53.126;6.878;2023-09-08T13:24:20;6.07;;;4.47;;
52102;SDS011;38101;53.126;6.878;2023-09-08T13:26:47;5.60;;;4.68;;
52102;SDS011;38101;53.126;6.878;2023-09-08T13:29:13;6.53;;;4.57;;
52102;SDS011;38101;53.126;6.878;2023-09-08T13:31:39;6.82;;;4.82;;
52102;SDS011;38101;53.126;6.878;2023-09-08T13:34:05;6.32;;;4.90;;
52102;SDS011;38101;53.126;6.878;2023-09-08T13:36:31;6.18;;;4.47;;
52102;SDS011;38101;53.126;6.878;2023-09-08T13:38:57;7.80;;;5.07;;
52102;SDS011;38101;53.126;6.878;2023-09-08T13:41:23;6.00;;;4.68;;
52102;SDS011;38101;53.126;6.878;2023-09-08T13:43:49;6.43;;;4.72;;
52102;SDS011;38101;53.126;6.878;2023-09-08T13:46:15;5.10;;;4.57;;
52102;SDS011;38101;53.126;6.878;2023-09-08T13:48:41;6.97;;;4.90;;
52102;SDS011;38101;53.126;6.878;2023-09-08T13:51:07;7.95;;;5.38;;
52102;SDS011;38101;53.126;6.878;2023-09-08T13:53:33;6.43;;;4.65;;
52102;SDS011;38101;53.126;6.878;2023-09-08T13:56:00;6.28;;;4.82;;
52102;SDS011;38101;53.126;6.878;2023-09-08T13:58:26;8.35;;;5.00;;
52102;SDS011;38101;53.126;6.878;2023-09-08T14:00:52;5.47;;;4.35;;
52102;SDS011;38101;53.126;6.878;2023-09-08T14:03:18;6.10;;;4.45;;
52102;SDS011;38101;53.126;6.878;2023-09-08T14:05:44;5.60;;;4.95;;
52102;SDS011;38101;53.126;6.878;2023-09-08T14:08:10;7.25;;;5.15;;
52102;SDS011;38101;53.126;6.878;2023-09-08T14:10:35;6.50;;;4.70;;
52102;SDS011;38101;53.126;6.878;2023-09-08T14:13:01;5.60;;;4.38;;
52102;SDS011;38101;53.126;6.878;2023-09-08T14:15:27;4.95;;;4.05;;
52102;SDS011;38101;53.126;6.878;2023-09-08T14:17:53;6.03;;;4.43;;
52102;SDS011;38101;53.126;6.878;2023-09-08T14:20:18;8.25;;;4.75;;
52102;SDS011;38101;53.126;6.878;2023-09-08T14:22:44;6.55;;;4.78;;
52102;SDS011;38101;53.126;6.878;2023-09-08T14:25:10;6.25;;;4.72;;
52102;SDS011;38101;53.126;6.878;2023-09-08T14:27:36;7.22;;;5.00;;
52102;SDS011;38101;53.126;6.878;2023-09-08T14:30:05;6.50;;;4.70;;
52102;SDS011;38101;53.126;6.878;2023-09-08T14:32:31;5.43;;;4.80;;
52102;SDS011;38101;53.126;6.878;2023-09-08T14:34:57;5.28;;;4.63;;
52102;SDS011;38101;53.126;6.878;2023-09-08T14:37:23;6.55;;;4.60;;
52102;SDS011;38101;53.126;6.878;2023-09-08T14:39:48;6.25;;;4.70;;
52102;SDS011;38101;53.126;6.878;2023-09-08T14:42:14;5.88;;;4.55;;
52102;SDS011;38101;53.126;6.878;2023-09-08T14:44:41;5.20;;;4.30;;
52102;SDS011;38101;53.126;6.878;2023-09-08T14:47:07;5.28;;;4.50;;
52102;SDS011;38101;53.126;6.878;2023-09-08T14:49:34;5.25;;;4.50;;
52102;SDS011;38101;53.126;6.878;2023-09-08T14:51:59;6.50;;;4.43;;
52102;SDS011;38101;53.126;6.878;2023-09-08T14:54:25;5.05;;;4.22;;